Time;durP1;ratioP1;P1;durP2;ratioP2;P2;SDS_P1;SDS_P2;PMS_P1;PMS_P2;Temp;Humidity;BMP_temperature;BMP_pressure;BME280_temperature;BME280_humidity;BME280_pressure;Samples;Min_cycle;Max_cycle;Signal;HPM_P1;HPM_P2
2021/10/31 00:00:23;;;;;;;55.50;31.10;;;;;;;12.31;78.77;101228.25;4995712;28;20046;-81
2021/10/31 00:03:08;;;;;;;54.92;30.20;;;;;;;12.33;79.21;101235.00;5016752;28;20042;-80
2021/10/31 00:05:53;;;;;;;50.03;30.55;;;;;;;12.32;78.33;101224.41;5016270;28;20636;-79
2021/10/31 00:08:37;;;;;;;68.15;41.10;;;;;;;12.29;78.27;101219.59;5005970;28;20045;-80
2021/10/31 00:11:22;;;;;;;;;;;;;;;12.24;78.43;101219.72;5009929;28;20492;-80
2021/10/31 00:14:07;;;;;;;56.17;35.42;;;;;;;12.22;78.66;101217.31;5017926;28;19914;-80
2021/10/31 00:16:57;;;;;;;;;;;;;;;12.23;78.30;101208.00;5015859;28;20038;-80
2021/10/31 00:19:42;;;;;;;59.83;36.55;;;;;;;12.23;78.54;101208.00;5004360;28;19918;-80
2021/10/31 00:22:27;;;;;;;53.40;31.42;;;;;;;12.22;78.31;101202.88;5014271;28;20050;-80
2021/10/31 00:25:13;;;;;;;52.10;32.38;;;;;;;12.21;78.43;101212.16;5019190;28;20038;-80
2021/10/31 00:27:57;;;;;;;65.80;41.22;;;;;;;12.24;78.65;101208.81;4993033;28;20034;-80
2021/10/31 00:30:42;;;;;;;47.17;29.38;;;;;;;12.20;78.62;101205.09;5013629;28;20046;-80
2021/10/31 00:33:27;;;;;;;63.80;37.63;;;;;;;12.17;78.32;101201.09;5003817;28;20038;-80
2021/10/31 00:36:11;;;;;;;58.75;36.88;;;;;;;12.23;77.89;101188.94;5007699;28;20492;-79
2021/10/31 00:38:56;;;;;;;56.67;34.75;;;;;;;12.20;77.72;101186.00;5021125;28;20038;-80
2021/10/31 00:41:41;;;;;;;61.13;36.33;;;;;;;12.24;77.40;101192.47;5015963;28;20038;-81
2021/10/31 00:44:26;;;;;;;;;;;;;;;12.16;77.81;101188.56;5009214;28;20042;-80
2021/10/31 00:47:10;;;;;;;56.30;34.75;;;;;;;12.17;77.81;101194.81;5014890;28;19923;-83
2021/10/31 00:49:55;;;;;;;;;;;;;;;12.22;78.25;101194.69;5000694;28;20500;-80
2021/10/31 00:52:41;;;;;;;53.05;33.15;;;;;;;12.20;78.55;101183.28;4997795;28;19914;-80
2021/10/31 00:55:26;;;;;;;66.35;40.45;;;;;;;12.23;78.85;101185.38;4994331;28;20411;-80
2021/10/31 00:58:12;;;;;;;68.65;40.10;;;;;;;12.24;78.91;101185.06;5021644;28;20042;-80
2021/10/31 01:00:56;;;;;;;68.78;40.22;;;;;;;12.24;78.87;101184.28;5016199;28;20045;-81
2021/10/31 01:03:42;;;;;;;;;;;;;;;12.26;78.14;101185.56;5015932;28;20041;-80
2021/10/31 01:06:45;;;;;;;73.35;39.22;;;;;;;12.20;78.51;101180.56;5015505;28;19913;-80
2021/10/31 01:09:36;;;;;;;89.97;46.17;;;;;;;12.17;78.94;101170.28;5013899;28;20041;-80
2021/10/31 01:12:48;;;;;;;69.53;38.70;;;;;;;12.20;78.32;101173.19;5004978;28;20496;-80
2021/10/31 01:15:57;;;;;;;74.30;41.63;;;;;;;12.21;78.68;101177.53;5003736;28;20038;-79
2021/10/31 01:18:54;;;;;;;68.68;40.78;;;;;;;12.16;78.86;101166.75;5014186;28;20045;-79
2021/10/31 01:22:00;;;;;;;69.68;38.83;;;;;;;12.14;79.06;101168.19;4996899;28;20050;-80
2021/10/31 01:25:03;;;;;;;66.68;40.17;;;;;;;12.08;79.13;101167.53;5010183;28;20038;-80
2021/10/31 01:28:22;;;;;;;78.78;42.92;;;;;;;12.07;78.97;101157.75;5001047;28;20046;-80
2021/10/31 01:31:45;;;;;;;70.15;41.45;;;;;;;12.06;79.06;101156.13;5013802;28;20041;-80
2021/10/31 01:34:48;;;;;;;75.78;42.58;;;;;;;12.08;79.47;101167.53;5006082;28;20045;-80
2021/10/31 01:38:15;;;;;;;97.50;50.65;;;;;;;12.12;79.44;101167.69;5007687;28;20037;-79
2021/10/31 01:41:08;;;;;;;;;;;;;;;12.09;79.63;101163.66;5014378;28;20038;-80
2021/10/31 01:44:11;;;;;;;82.72;44.83;;;;;;;12.06;79.44;101166.22;5010063;28;19913;-80
2021/10/31 01:46:56;;;;;;;84.15;45.85;;;;;;;12.04;79.42;101161.06;5013229;28;20046;-80
2021/10/31 01:49:53;;;;;;;80.82;44.83;;;;;;;12.05;79.76;101159.97;5004852;28;20046;-80
2021/10/31 01:52:45;;;;;;;77.38;44.45;;;;;;;12.00;79.88;101158.19;5007655;28;20046;-79
2021/10/31 01:55:35;;;;;;;70.80;40.50;;;;;;;12.05;79.63;101149.06;5013463;28;20054;-81
2021/10/31 01:58:22;;;;;;;79.15;43.25;;;;;;;12.07;79.58;101154.22;5011967;28;20504;-80
2021/10/31 02:01:10;;;;;;;72.20;42.78;;;;;;;12.07;79.98;101143.31;5015400;28;20507;-80
2021/10/31 02:03:59;;;;;;;80.38;42.53;;;;;;;12.05;79.82;101140.88;5015730;28;20046;-79
2021/10/31 02:06:48;;;;;;;73.82;41.72;;;;;;;12.06;79.79;101138.97;4994688;28;20049;-80
2021/10/31 02:09:34;;;;;;;71.72;43.30;;;;;;;12.04;79.92;101138.50;5012054;28;20046;-80
2021/10/31 02:12:21;;;;;;;78.18;41.17;;;;;;;12.03;79.93;101136.88;4999459;28;20049;-80
2021/10/31 02:15:07;;;;;;;71.65;41.95;;;;;;;12.05;79.77;101137.34;5012309;28;20085;-80
2021/10/31 02:17:55;;;;;;;72.90;41.25;;;;;;;12.07;79.94;101129.66;5011458;28;20630;-81
2021/10/31 02:20:43;;;;;;;62.97;40.20;;;;;;;12.07;79.98;101132.41;5011471;28;20046;-80
2021/10/31 02:23:29;;;;;;;75.97;40.30;;;;;;;12.04;80.06;101130.31;5006575;28;20504;-79
2021/10/31 02:26:15;;;;;;;66.90;39.00;;;;;;;11.98;80.08;101133.19;4999161;28;20045;-80
2021/10/31 02:29:07;;;;;;;72.75;40.33;;;;;;;11.99;79.42;101133.97;5024436;28;20050;-80
2021/10/31 02:31:52;;;;;;;64.53;39.00;;;;;;;11.98;79.46;101126.91;5010402;28;20030;-79
2021/10/31 02:34:36;;;;;;;63.92;38.53;;;;;;;11.94;79.12;101132.19;5015330;28;20682;-79
2021/10/31 02:37:26;;;;;;;63.05;37.35;;;;;;;11.93;79.31;101127.88;5014451;28;20404;-82
2021/10/31 02:40:14;;;;;;;67.38;39.97;;;;;;;11.93;79.23;101122.41;5015334;28;20038;-80
2021/10/31 02:42:59;;;;;;;65.50;38.22;;;;;;;11.95;79.13;101131.06;5013668;28;20053;-80
2021/10/31 02:45:43;;;;;;;55.67;31.50;;;;;;;11.95;79.98;101132.97;5015196;28;20038;-80
2021/10/31 02:48:28;;;;;;;63.60;38.13;;;;;;;11.97;79.96;101137.00;5029432;28;20041;-80
2021/10/31 02:51:39;;;;;;;59.42;35.55;;;;;;;12.03;79.34;101125.97;5008144;28;20034;-80
2021/10/31 02:54:44;;;;;;;65.82;36.80;;;;;;;12.02;79.55;101114.25;5014114;28;20046;-80
2021/10/31 02:57:43;;;;;;;68.13;37.78;;;;;;;12.05;79.52;101115.53;5015892;28;20412;-80
2021/10/31 03:00:30;;;;;;;62.42;36.17;;;;;;;12.10;78.97;101112.69;5016235;28;20042;-81
2021/10/31 03:03:15;;;;;;;60.25;36.25;;;;;;;12.07;78.52;101110.59;4995558;28;20042;-80
2021/10/31 03:06:00;;;;;;;49.80;27.90;;;;;;;11.99;78.99;101115.69;5015788;28;20038;-80
2021/10/31 03:08:45;;;;;;;54.28;35.60;;;;;;;11.89;79.62;101112.44;5017574;28;20054;-80
2021/10/31 03:11:30;;;;;;;45.50;26.92;;;;;;;11.86;79.89;101113.88;5028011;28;20042;-80
2021/10/31 03:14:15;;;;;;;62.83;36.20;;;;;;;11.86;80.23;101118.53;5009406;28;20050;-79
2021/10/31 03:16:59;;;;;;;60.53;37.00;;;;;;;11.90;80.02;101106.69;5016517;28;20046;-79
2021/10/31 03:19:45;;;;;;;64.35;37.92;;;;;;;11.96;79.88;101112.78;5023846;28;20045;-80
2021/10/31 03:22:31;;;;;;;58.95;33.97;;;;;;;11.97;79.58;101104.31;5010416;28;20053;-80
2021/10/31 03:25:15;;;;;;;60.13;36.10;;;;;;;11.95;79.71;101103.81;5016364;28;20049;-80
2021/10/31 03:28:01;;;;;;;44.85;26.88;;;;;;;11.92;79.65;101103.66;5017257;28;20042;-80
2021/10/31 03:30:46;;;;;;;54.80;34.30;;;;;;;11.85;79.71;101117.72;5023820;28;20045;-80
2021/10/31 03:33:30;;;;;;;40.88;26.63;;;;;;;11.80;79.76;101111.59;5048413;23;20041;-82
2021/10/31 03:36:15;;;;;;;39.25;24.40;;;;;;;11.74;79.97;101108.19;5053198;28;20049;-80
2021/10/31 03:39:00;;;;;;;60.88;33.78;;;;;;;11.76;79.85;101108.69;5043014;28;20036;-81
2021/10/31 03:41:46;;;;;;;;;;;;;;;11.81;80.48;101105.03;5060951;28;20041;-82
2021/10/31 03:44:35;;;;;;;50.97;33.22;;;;;;;11.84;80.37;101098.94;5052271;28;19912;-81
2021/10/31 03:47:22;;;;;;;59.30;34.20;;;;;;;11.95;79.06;101101.09;5035337;28;20033;-81
2021/10/31 03:50:07;;;;;;;54.03;34.35;;;;;;;11.87;79.41;101099.13;5045747;28;20049;-80
2021/10/31 03:52:55;;;;;;;55.72;33.72;;;;;;;11.81;79.79;101097.66;5051163;28;20044;-81
2021/10/31 03:55:40;;;;;;;55.72;35.90;;;;;;;11.80;80.51;101100.69;5040860;28;20041;-81
2021/10/31 03:58:25;;;;;;;42.15;26.98;;;;;;;11.79;80.60;101097.16;5044155;28;20041;-81
2021/10/31 04:01:09;;;;;;;45.85;26.30;;;;;;;11.76;80.59;101108.69;5036439;28;20045;-81
2021/10/31 04:03:54;;;;;;;66.60;38.22;;;;;;;11.79;80.48;101099.88;5029280;28;20499;-81
2021/10/31 04:06:39;;;;;;;48.15;27.42;;;;;;;11.76;80.45;101097.81;5057843;28;20499;-80
2021/10/31 04:09:23;;;;;;;71.97;38.88;;;;;;;11.77;80.45;101110.31;5057731;28;20045;-82
2021/10/31 04:12:08;;;;;;;46.15;28.60;;;;;;;11.74;80.59;101093.75;5045275;28;20495;-81
2021/10/31 04:14:53;;;;;;;47.10;28.40;;;;;;;11.77;80.72;101098.59;5046324;28;20045;-80
2021/10/31 04:17:38;;;;;;;47.97;28.42;;;;;;;11.75;80.74;101104.38;5037442;28;20040;-81
2021/10/31 04:20:23;;;;;;;45.67;28.27;;;;;;;11.76;80.64;101103.25;5039163;28;20041;-80
2021/10/31 04:23:08;;;;;;;48.97;30.17;;;;;;;11.74;80.59;101094.56;5057075;28;20037;-80
2021/10/31 04:25:53;;;;;;;64.80;36.08;;;;;;;11.74;80.84;101094.56;5040567;28;20418;-80
2021/10/31 04:28:38;;;;;;;;;;;;;;;11.80;80.56;101097.97;5051410;28;20037;-81
2021/10/31 04:31:23;;;;;;;54.85;35.33;;;;;;;11.77;80.51;101093.16;5039077;28;19913;-83
2021/10/31 04:34:08;;;;;;;59.65;35.53;;;;;;;11.78;80.24;101092.84;5042321;28;20049;-82
2021/10/31 04:36:53;;;;;;;45.83;27.35;;;;;;;11.78;79.96;101084.69;5045697;28;20049;-82
2021/10/31 04:39:41;;;;;;;49.40;27.77;;;;;;;11.76;80.34;101089.63;5054622;28;20045;-82
2021/10/31 04:42:30;;;;;;;56.70;34.35;;;;;;;11.74;80.41;101082.88;5044950;28;20052;-82
2021/10/31 04:45:15;;;;;;;57.10;35.05;;;;;;;11.73;81.00;101082.09;5046056;28;20037;-84
2021/10/31 04:48:00;;;;;;;53.83;28.60;;;;;;;11.69;80.97;101080.25;5043996;28;20045;-81
2021/10/31 04:50:45;;;;;;;67.57;37.90;;;;;;;11.69;80.99;101081.06;5041838;28;20503;-81
2021/10/31 04:53:29;;;;;;;47.80;28.73;;;;;;;11.68;80.89;101078.66;5037927;28;20495;-82
2021/10/31 04:56:14;;;;;;;66.82;36.95;;;;;;;11.71;80.98;101073.38;5039447;28;20041;-79
2021/10/31 04:58:59;;;;;;;49.63;28.85;;;;;;;11.75;80.44;101071.66;5038125;28;20044;-80
2021/10/31 05:01:45;;;;;;;58.08;34.60;;;;;;;11.72;80.72;101069.56;5046906;28;20041;-82
2021/10/31 05:04:30;;;;;;;60.95;35.22;;;;;;;11.81;80.09;101070.41;5053665;28;20053;-81
2021/10/31 05:07:16;;;;;;;61.25;34.03;;;;;;;11.81;79.86;101067.69;5055755;28;20041;-82
2021/10/31 05:10:01;;;;;;;59.63;36.08;;;;;;;11.79;80.22;101064.47;5048361;28;20442;-83
2021/10/31 05:12:46;;;;;;;41.35;26.73;;;;;;;11.80;79.59;101066.06;5039940;28;20508;-82
2021/10/31 05:15:31;;;;;;;55.28;32.38;;;;;;;11.72;80.12;101060.56;5042728;28;20053;-81
2021/10/31 05:18:16;;;;;;;43.85;25.48;;;;;;;11.67;80.47;101060.72;5040172;28;20056;-81
2021/10/31 05:21:01;;;;;;;52.15;32.58;;;;;;;11.63;80.67;101065.19;5051657;28;20053;-82
2021/10/31 05:23:45;;;;;;;44.92;26.92;;;;;;;11.61;80.75;101062.75;5035933;28;20048;-83
2021/10/31 05:26:30;;;;;;;50.13;25.98;;;;;;;11.73;80.47;101054.03;5052183;28;20045;-82
2021/10/31 05:29:15;;;;;;;46.40;26.20;;;;;;;11.83;79.45;101057.28;5034905;28;20037;-83
2021/10/31 05:32:01;;;;;;;59.65;32.22;;;;;;;11.77;79.92;101057.75;5057999;28;20037;-81
2021/10/31 05:34:45;;;;;;;44.75;25.85;;;;;;;11.74;80.55;101050.97;5041515;28;20036;-80
2021/10/31 05:37:35;;;;;;;44.25;27.67;;;;;;;11.78;80.39;101052.00;5052416;28;20044;-80
2021/10/31 05:40:21;;;;;;;59.15;36.20;;;;;;;11.68;80.47;101046.78;5025341;28;20045;-80
2021/10/31 05:43:05;;;;;;;57.72;37.25;;;;;;;11.59;80.88;101045.91;5035105;28;20045;-80
2021/10/31 05:45:50;;;;;;;;;;;;;;;11.67;80.89;101049.81;5039774;28;20521;-81
2021/10/31 05:48:36;;;;;;;57.80;34.10;;;;;;;11.65;81.03;101043.88;5048829;28;19913;-83
2021/10/31 05:51:20;;;;;;;56.47;36.55;;;;;;;11.63;81.15;101038.72;5035914;28;20032;-82
2021/10/31 05:54:07;;;;;;;;;;;;;;;11.66;81.16;101048.19;5043184;28;20048;-81
2021/10/31 05:56:51;;;;;;;41.13;25.77;;;;;;;11.64;81.22;101040.34;5055354;28;19912;-78
2021/10/31 05:59:36;;;;;;;61.22;37.63;;;;;;;11.64;81.28;101040.34;5050558;28;20044;-77
2021/10/31 06:02:21;;;;;;;54.58;28.23;;;;;;;11.64;81.38;101048.50;5052831;28;20041;-77
2021/10/31 06:05:07;;;;;;;65.97;39.67;;;;;;;11.65;81.59;101041.16;5047619;28;20045;-76
2021/10/31 06:07:52;;;;;;;75.85;40.70;;;;;;;11.66;81.60;101049.00;5046409;28;20045;-79
2021/10/31 06:10:37;;;;;;;52.63;31.15;;;;;;;11.63;81.91;101043.41;5047965;28;20415;-78
2021/10/31 06:13:22;;;;;;;77.32;41.83;;;;;;;11.66;81.62;101051.72;5045256;28;20048;-78
2021/10/31 06:16:08;;;;;;;50.03;32.10;;;;;;;11.65;81.55;101047.41;5057499;28;20040;-79
2021/10/31 06:18:53;;;;;;;62.40;38.63;;;;;;;11.63;81.62;101049.63;5036190;28;20414;-79
2021/10/31 06:21:37;;;;;;;54.95;31.00;;;;;;;11.64;81.54;101050.44;5050326;28;20049;-78
2021/10/31 06:24:22;;;;;;;68.82;38.85;;;;;;;11.68;81.38;101052.22;5030678;28;20045;-78
2021/10/31 06:27:07;;;;;;;71.72;41.10;;;;;;;11.70;81.64;101060.06;5054622;28;20045;-79
2021/10/31 06:29:52;;;;;;;57.42;31.38;;;;;;;11.71;81.41;101067.94;5045342;28;20044;-78
2021/10/31 06:32:38;;;;;;;;;;;;;;;11.73;81.56;101073.13;5051689;28;20044;-80
2021/10/31 06:35:23;;;;;;;73.80;41.67;;;;;;;11.68;81.85;101068.59;5053148;28;19913;-78
2021/10/31 06:38:08;;;;;;;;;;;;;;;11.68;82.62;101075.94;5049779;28;20045;-79
2021/10/31 06:40:52;;;;;;;89.03;47.92;;;;;;;11.63;83.10;101071.41;5048538;28;19917;-78
2021/10/31 06:43:37;;;;;;;;;;;;;;;11.67;83.61;101083.31;5043120;28;20052;-78
2021/10/31 06:46:22;;;;;;;100.03;49.63;;;;;;;11.66;83.68;101089.88;5047843;28;19916;-79
2021/10/31 06:49:09;;;;;;;91.30;41.33;;;;;;;11.63;84.41;101092.44;5047992;28;20041;-78
2021/10/31 06:51:54;;;;;;;114.45;54.13;;;;;;;11.61;85.14;101095.44;5059641;28;20040;-78
2021/10/31 06:54:39;;;;;;;108.00;54.67;;;;;;;11.61;85.35;101094.66;5055196;28;20415;-78
2021/10/31 06:57:24;;;;;;;;;;;;;;;11.64;85.72;101107.63;5041803;28;20045;-78
2021/10/31 07:00:09;;;;;;;104.35;50.22;;;;;;;11.63;85.64;101106.81;5050567;28;20326;-77
2021/10/31 07:02:54;;;;;;;113.97;54.47;;;;;;;11.64;85.89;101103.00;5056380;28;20044;-79
2021/10/31 07:05:39;;;;;;;;;;;;;;;11.68;85.63;101101.28;5056709;28;20041;-80
2021/10/31 07:08:24;;;;;;;109.78;50.90;;;;;;;11.71;85.57;101116.97;5054063;28;19912;-79
2021/10/31 07:11:09;;;;;;;;;;;;;;;11.69;85.82;101112.94;5055712;28;20045;-79
2021/10/31 07:13:54;;;;;;;99.47;52.85;;;;;;;11.69;86.09;101110.22;5068615;28;19913;-80
2021/10/31 07:16:39;;;;;;;107.25;51.15;;;;;;;11.70;86.00;101115.38;5066922;28;20048;-80
2021/10/31 07:19:24;;;;;;;;;;;;;;;11.72;86.13;101123.22;5069384;28;20495;-80
2021/10/31 07:22:09;;;;;;;113.60;52.47;;;;;;;11.71;86.27;101136.06;5059912;28;20310;-79
2021/10/31 07:24:54;;;;;;;106.70;50.60;;;;;;;11.72;85.73;101126.75;5061259;28;20037;-79
2021/10/31 07:27:39;;;;;;;111.40;54.10;;;;;;;11.77;85.74;101126.66;5046417;28;20045;-79
2021/10/31 07:30:25;;;;;;;113.55;52.80;;;;;;;11.70;86.05;101131.72;5034221;28;20041;-79
2021/10/31 07:33:10;;;;;;;98.88;52.97;;;;;;;11.76;85.62;101138.66;5061069;28;20041;-79
2021/10/31 07:35:54;;;;;;;;;;;;;;;11.76;85.62;101140.59;5053886;28;20419;-79
2021/10/31 07:38:42;;;;;;;113.97;51.95;;;;;;;11.78;86.14;101128.28;5052551;28;19912;-79
2021/10/31 07:41:27;;;;;;;98.18;49.63;;;;;;;11.79;86.19;101124.41;5049095;28;20036;-79
2021/10/31 07:44:12;;;;;;;113.90;55.45;;;;;;;11.80;86.06;101125.22;5061428;28;20426;-79
2021/10/31 07:46:57;;;;;;;75.78;37.20;;;;;;;11.88;85.55;101125.28;5047613;28;20040;-80
2021/10/31 07:49:42;;;;;;;;;;;;;;;11.98;84.57;101121.47;5046668;28;20044;-77
2021/10/31 07:52:27;;;;;;;103.65;47.42;;;;;;;11.97;84.19;101131.56;5053567;28;19912;-77
2021/10/31 07:55:17;;;;;;;103.18;50.70;;;;;;;12.07;83.87;101133.22;5045772;28;20072;-79
2021/10/31 07:58:04;;;;;;;103.05;51.42;;;;;;;12.08;83.65;101131.28;5043238;28;20049;-80
2021/10/31 08:00:49;;;;;;;104.13;49.42;;;;;;;12.08;83.90;101128.56;5053738;28;20041;-79
2021/10/31 08:03:34;;;;;;;77.57;39.22;;;;;;;12.11;83.37;101123.28;5047625;28;20037;-79
2021/10/31 08:06:24;;;;;;;81.43;38.42;;;;;;;12.10;83.84;101127.13;5057314;28;20048;-79
2021/10/31 08:09:09;;;;;;;85.85;45.83;;;;;;;12.10;82.95;101124.38;5045119;28;20033;-79
2021/10/31 08:11:53;;;;;;;;;;;;;;;12.12;82.86;101127.63;5040068;28;20037;-79
2021/10/31 08:14:38;;;;;;;90.10;45.30;;;;;;;12.07;82.56;101119.56;5045185;28;19952;-80
2021/10/31 08:17:23;;;;;;;89.13;45.70;;;;;;;12.15;82.12;101120.72;5047167;28;20045;-79
2021/10/31 08:20:09;;;;;;;67.32;38.90;;;;;;;12.12;82.28;101111.25;5039598;28;20041;-80
2021/10/31 08:22:54;;;;;;;94.35;45.75;;;;;;;12.06;82.56;101111.69;5043521;28;20042;-78
2021/10/31 08:25:39;;;;;;;96.38;47.10;;;;;;;12.07;82.65;101119.56;5045124;28;20045;-78
2021/10/31 08:28:24;;;;;;;;;;;;;;;12.17;82.11;101108.38;5057715;28;20040;-78
2021/10/31 08:31:09;;;;;;;95.68;44.08;;;;;;;12.14;82.18;101110.94;5033162;28;19927;-79
2021/10/31 08:33:58;;;;;;;69.25;35.13;;;;;;;12.13;82.51;101107.41;5048455;28;20044;-77
2021/10/31 08:36:42;;;;;;;91.53;47.58;;;;;;;12.19;82.05;101100.69;5047363;28;20037;-77
2021/10/31 08:39:27;;;;;;;73.43;36.05;;;;;;;12.17;81.87;101102.94;5047199;28;20053;-77
2021/10/31 08:42:14;;;;;;;74.07;35.20;;;;;;;12.22;81.75;101093.81;5037810;28;20033;-80
2021/10/31 08:44:59;;;;;;;84.88;45.03;;;;;;;12.19;81.95;101089.00;5036643;28;20049;-78
2021/10/31 08:47:44;;;;;;;;;;;;;;;12.28;81.68;101090.63;5049789;28;21517;-79
2021/10/31 08:50:29;;;;;;;94.72;45.78;;;;;;;12.26;81.73;101089.31;5051907;28;19913;-79
2021/10/31 08:53:16;;;;;;;;;;;;;;;12.27;81.92;101101.84;5045560;28;20044;-77
2021/10/31 08:56:01;;;;;;;91.90;45.70;;;;;;;12.26;81.74;101083.88;5050853;28;19913;-78
2021/10/31 08:58:46;;;;;;;95.28;49.47;;;;;;;12.27;81.46;101086.28;5039186;28;20037;-78
2021/10/31 09:01:31;;;;;;;;;;;;;;;12.33;81.35;101085.03;5035556;28;20037;-78
2021/10/31 09:04:15;;;;;;;91.07;46.58;;;;;;;12.30;81.64;101082.09;5048523;28;19920;-78
2021/10/31 09:07:00;;;;;;;;;;;;;;;12.34;81.72;101080.38;5038775;28;20052;-77
2021/10/31 09:09:45;;;;;;;96.95;47.55;;;;;;;12.31;82.34;101075.53;5037068;28;19913;-79
2021/10/31 09:12:30;;;;;;;;;;;;;;;12.36;81.42;101083.56;5041776;28;20037;-78
2021/10/31 09:15:15;;;;;;;88.57;46.28;;;;;;;12.39;81.02;101082.94;5053405;28;19912;-77
2021/10/31 09:17:59;;;;;;;;;;;;;;;12.41;81.13;101078.75;5038026;28;20045;-79
2021/10/31 09:20:45;;;;;;;90.35;47.85;;;;;;;12.43;81.37;101083.91;5037696;28;19921;-78
2021/10/31 09:23:31;;;;;;;102.20;48.10;;;;;;;12.42;82.17;101079.56;5036080;28;20045;-78
2021/10/31 09:26:19;;;;;;;92.40;48.35;;;;;;;12.42;82.03;101076.84;5051622;28;20406;-77
2021/10/31 09:29:04;;;;;;;99.30;49.90;;;;;;;12.47;81.39;101076.69;5053251;28;20045;-78
2021/10/31 09:31:48;;;;;;;90.53;47.08;;;;;;;12.49;81.62;101071.72;5050371;28;20037;-78
2021/10/31 09:34:33;;;;;;;;;;;;;;;12.78;84.26;101069.19;5034294;23;20046;-78
2021/10/31 09:37:18;;;;;;;97.25;49.15;;;;;;;12.93;80.85;101069.81;5025809;28;19917;-78
2021/10/31 09:40:05;;;;;;;96.97;48.70;;;;;;;12.94;80.44;101058.56;5031878;28;20041;-82
2021/10/31 09:42:52;;;;;;;105.28;47.95;;;;;;;13.01;80.08;101061.59;5033051;28;20515;-77
2021/10/31 09:45:37;;;;;;;97.32;51.10;;;;;;;12.92;80.18;101062.75;4998114;28;20041;-77
2021/10/31 09:48:22;;;;;;;85.60;45.63;;;;;;;12.86;80.32;101070.28;5017754;28;20050;-77
2021/10/31 09:51:07;;;;;;;69.03;37.17;;;;;;;12.95;80.60;101056.66;5017489;28;20041;-77
2021/10/31 09:53:52;;;;;;;70.78;37.55;;;;;;;13.03;80.49;101059.38;5020217;28;20038;-77
2021/10/31 09:56:38;;;;;;;103.40;50.08;;;;;;;13.14;80.29;101060.66;5009216;28;20050;-78
2021/10/31 09:59:26;;;;;;;95.82;50.97;;;;;;;13.23;80.58;101057.91;5011884;28;20042;-77
2021/10/31 10:02:13;;;;;;;80.50;46.05;;;;;;;13.19;79.00;101048.78;5011643;28;20504;-77
2021/10/31 10:04:58;;;;;;;84.63;46.17;;;;;;;13.20;79.16;101056.66;5025343;28;20038;-77
2021/10/31 10:07:46;;;;;;;96.00;51.92;;;;;;;13.22;79.70;101051.66;5009797;28;20049;-77
2021/10/31 10:10:52;;;;;;;114.10;57.90;;;;;;;13.46;81.00;101051.09;5011376;28;20420;-78
2021/10/31 10:13:37;;;;;;;120.25;57.88;;;;;;;13.69;80.20;101038.81;5006337;28;20034;-76
2021/10/31 10:16:21;;;;;;;116.47;60.90;;;;;;;13.82;79.58;101042.44;5018093;28;20500;-77
2021/10/31 10:19:31;;;;;;;62.75;34.75;;;;;;;13.69;79.31;101036.09;5010329;28;20042;-77
2021/10/31 10:22:22;;;;;;;100.30;52.63;;;;;;;13.89;78.94;101042.75;5009559;28;20034;-77
2021/10/31 10:25:07;;;;;;;117.93;59.70;;;;;;;13.95;79.40;101040.63;5010892;28;20524;-77
2021/10/31 10:27:55;;;;;;;83.15;42.83;;;;;;;14.26;79.00;101032.09;5011408;28;20042;-76
2021/10/31 10:30:40;;;;;;;97.93;53.80;;;;;;;14.41;77.68;101026.84;4992753;28;20042;-78
2021/10/31 10:33:25;;;;;;;79.57;41.67;;;;;;;14.51;76.88;101033.88;4997870;28;20033;-77
2021/10/31 10:36:14;;;;;;;;;;;;;;;14.50;76.04;101024.84;5011043;28;20492;-77
2021/10/31 10:39:02;;;;;;;84.65;47.00;;;;;;;14.47;75.73;101027.47;5005279;28;19913;-76
2021/10/31 10:41:51;;;;;;;89.32;48.72;;;;;;;14.35;75.63;101011.72;5010622;28;20038;-77
2021/10/31 10:44:38;;;;;;;108.30;54.65;;;;;;;14.38;76.11;101008.34;5006100;28;20045;-77
2021/10/31 10:47:24;;;;;;;84.18;49.22;;;;;;;14.30;75.07;101003.72;5012724;28;20037;-77
2021/10/31 10:50:21;;;;;;;75.35;42.95;;;;;;;14.26;75.53;100996.53;5006399;28;20038;-77
2021/10/31 10:53:17;;;;;;;87.03;45.53;;;;;;;14.26;75.41;100989.13;5007825;28;20046;-77
2021/10/31 10:56:12;;;;;;;100.65;53.40;;;;;;;14.35;75.48;100987.09;5009309;28;20049;-77
2021/10/31 10:59:00;;;;;;;61.78;36.03;;;;;;;14.45;74.81;100984.00;5013934;28;20038;-76
2021/10/31 11:01:46;;;;;;;96.70;52.88;;;;;;;14.51;75.39;100984.59;5005318;28;20598;-77
2021/10/31 11:04:32;;;;;;;99.32;52.25;;;;;;;14.61;74.82;100975.19;5006056;28;20423;-77
2021/10/31 11:07:26;;;;;;;76.88;43.28;;;;;;;14.53;74.21;100974.91;5016729;28;20041;-77
2021/10/31 11:10:23;;;;;;;71.22;42.05;;;;;;;14.63;73.72;100975.66;5010894;28;20046;-76
2021/10/31 11:13:08;;;;;;;83.72;47.17;;;;;;;14.57;73.96;100974.25;5011006;28;20043;-77
2021/10/31 11:15:54;;;;;;;;;;;;;;;14.54;73.68;100970.25;5003756;28;20053;-77
2021/10/31 11:18:39;;;;;;;85.88;47.67;;;;;;;14.48;74.27;100964.16;5014080;28;19913;-77
2021/10/31 11:21:24;;;;;;;107.80;56.65;;;;;;;14.61;76.11;100958.75;5000296;28;20046;-77
2021/10/31 11:24:09;;;;;;;97.43;51.40;;;;;;;14.77;75.48;100957.00;5010583;28;20046;-77
2021/10/31 11:26:54;;;;;;;80.95;45.05;;;;;;;14.83;73.93;100950.94;5008405;28;20419;-77
2021/10/31 11:29:41;;;;;;;;;;;;;;;14.92;75.46;100950.88;5015632;28;20500;-76
2021/10/31 11:32:29;;;;;;;73.78;41.08;;;;;;;14.85;73.21;100942.41;5016590;28;19914;-76
2021/10/31 11:35:16;;;;;;;69.40;39.33;;;;;;;14.85;72.62;100939.66;5006290;28;20045;-76
2021/10/31 11:38:11;;;;;;;68.00;42.10;;;;;;;14.85;72.87;100937.72;5017727;28;20045;-77
2021/10/31 11:41:08;;;;;;;52.67;30.88;;;;;;;14.84;72.50;100932.59;5001880;28;20497;-77
2021/10/31 11:43:54;;;;;;;66.50;39.47;;;;;;;14.85;72.29;100937.72;5017138;28;20416;-76
2021/10/31 11:46:41;;;;;;;95.32;50.45;;;;;;;14.85;72.81;100934.19;5014010;28;20046;-77
2021/10/31 11:49:27;;;;;;;95.80;48.97;;;;;;;14.82;72.78;100929.41;5017910;28;20050;-77
2021/10/31 11:52:51;;;;;;;71.85;43.15;;;;;;;14.84;73.00;100910.69;5013612;28;20034;-77
2021/10/31 11:55:45;;;;;;;81.93;44.65;;;;;;;14.82;73.33;100913.78;5000873;28;20058;-76
2021/10/31 11:58:36;;;;;;;81.30;44.45;;;;;;;14.93;74.39;100914.16;5013632;28;20046;-77
2021/10/31 12:01:39;;;;;;;82.05;46.90;;;;;;;14.95;73.11;100903.63;5013127;28;20042;-76
2021/10/31 12:05:14;;;;;;;80.72;47.60;;;;;;;14.99;72.54;100901.81;5004367;28;20046;-77
2021/10/31 12:08:00;;;;;;;;;;;;;;;15.12;74.46;100895.22;5010503;28;20500;-77
2021/10/31 12:10:45;;;;;;;88.43;47.25;;;;;;;15.08;73.13;100891.56;5023043;28;19913;-77
2021/10/31 12:13:40;;;;;;;64.95;38.33;;;;;;;15.07;70.88;100892.72;5012181;28;20038;-77
2021/10/31 12:16:26;;;;;;;76.10;45.73;;;;;;;15.09;71.02;100889.59;5013667;28;20046;-77
2021/10/31 12:19:12;;;;;;;66.93;37.38;;;;;;;15.07;69.46;100884.50;5019321;28;20276;-77
2021/10/31 12:22:12;;;;;;;75.97;43.42;;;;;;;15.27;73.72;100886.34;5013855;28;20042;-78
2021/10/31 12:25:08;;;;;;;74.28;44.33;;;;;;;15.26;71.58;100884.72;5013197;28;20046;-77
2021/10/31 12:27:52;;;;;;;77.82;40.47;;;;;;;15.29;72.87;100885.97;5004096;28;20046;-77
2021/10/31 12:30:40;;;;;;;;;;;;;;;15.29;71.87;100886.78;5007087;28;20422;-76
2021/10/31 12:33:25;;;;;;;108.85;57.47;;;;;;;15.38;73.38;100879.25;5012206;28;19917;-77
2021/10/31 12:36:29;;;;;;;77.65;43.47;;;;;;;15.50;71.10;100880.38;5007409;28;20033;-77
2021/10/31 12:39:30;;;;;;;106.10;55.40;;;;;;;15.59;72.07;100878.34;5008074;28;20052;-78
2021/10/31 12:42:33;;;;;;;89.75;50.75;;;;;;;15.66;71.58;100875.81;5015205;28;20042;-78
2021/10/31 12:45:17;;;;;;;66.65;39.63;;;;;;;15.60;69.39;100875.25;5012959;28;20045;-77
2021/10/31 12:48:09;;;;;;;78.10;43.63;;;;;;;15.53;68.46;100874.25;5011644;28;20042;-77
2021/10/31 12:50:55;;;;;;;92.70;51.40;;;;;;;15.62;70.22;100866.69;5012335;28;20041;-78